createdAt,value
2018-02-06T00:04:57.559Z,83.15
2018-02-06T00:11:02.190Z,82.93
2018-02-06T00:17:07.864Z,84.17
2018-02-06T00:23:12.588Z,84.40
2018-02-06T00:29:17.959Z,84.79
2018-02-06T00:35:23.832Z,84.12
2018-02-06T00:41:28.381Z,84.02
2018-02-06T00:47:33.167Z,84.46
2018-02-06T00:53:38.416Z,84.36
2018-02-06T00:59:42.976Z,84.83
2018-02-06T01:05:47.482Z,84.97
2018-02-06T01:11:53.031Z,84.74
2018-02-06T01:17:58.419Z,84.68
2018-02-06T01:24:03.664Z,84.57
2018-02-06T01:30:08.188Z,84.66
2018-02-06T01:36:12.868Z,84.37
2018-02-06T01:42:17.970Z,83.67
2018-02-06T01:48:23.770Z,84.05
2018-02-06T01:54:28.456Z,83.65
2018-02-06T02:00:34.794Z,83.20
2018-02-06T02:06:39.303Z,82.75
2018-02-06T02:12:43.834Z,82.01
2018-02-06T02:18:48.588Z,81.32
2018-02-06T02:24:53.684Z,81.00
2018-02-06T02:30:58.163Z,80.49
2018-02-06T02:37:02.883Z,80.51
2018-02-06T04:38:37.940Z,81.46
2018-02-06T04:44:42.750Z,81.19
2018-02-06T04:50:47.264Z,81.22
2018-02-06T04:56:52.645Z,81.66
2018-02-06T05:02:57.306Z,81.52
2018-02-06T05:09:02.138Z,81.25
2018-02-06T05:15:06.637Z,80.97
2018-02-06T05:21:11.410Z,81.06
2018-02-06T05:27:15.895Z,81.24
2018-02-06T05:33:21.099Z,80.84
2018-02-06T05:39:25.854Z,81.11
2018-02-06T05:45:30.442Z,80.72
2018-02-06T05:51:34.956Z,80.85
2018-02-06T05:57:39.467Z,81.13
2018-02-06T06:03:44.146Z,81.97
2018-02-06T06:09:49.056Z,82.56
2018-02-06T06:15:55.036Z,82.64
2018-02-06T06:21:59.932Z,82.36
2018-02-06T06:28:04.507Z,82.46
2018-02-06T06:34:09.422Z,81.82
2018-02-06T06:40:13.987Z,81.79
2018-02-06T06:46:18.804Z,81.79
2018-02-06T06:52:24.488Z,81.38
2018-02-06T06:58:29.103Z,82.09
2018-02-06T07:04:33.624Z,82.35
2018-02-06T07:10:38.158Z,82.10
2018-02-06T07:16:43.439Z,81.84
2018-02-06T07:22:48.818Z,81.79
2018-02-06T07:28:53.807Z,82.08
2018-02-06T07:34:58.292Z,81.86
2018-02-06T07:41:02.926Z,81.72
2018-02-06T07:47:07.530Z,81.82
2018-02-06T07:53:12.164Z,81.44
2018-02-06T07:59:17.414Z,81.40
2018-02-06T08:05:21.928Z,80.79
2018-02-06T08:11:27.248Z,80.39
2018-02-06T08:17:31.778Z,79.82
2018-02-06T08:23:36.418Z,79.51
2018-02-06T08:29:40.937Z,79.44
2018-02-06T08:35:46.199Z,78.80
2018-02-06T08:41:51.096Z,78.33
2018-02-06T08:47:55.786Z,78.15
2018-02-06T08:54:00.380Z,77.57
2018-02-06T09:00:04.862Z,77.96
2018-02-06T09:06:09.362Z,76.78
2018-02-06T09:12:14.167Z,75.49
2018-02-06T09:18:19.561Z,74.31
2018-02-06T09:24:24.287Z,73.19
2018-02-06T09:30:28.811Z,72.65
2018-02-06T09:36:34.278Z,72.65
2018-02-06T09:42:38.851Z,71.32
2018-02-06T09:48:44.177Z,68.96
2018-02-06T09:54:49.435Z,67.55
2018-02-06T10:00:54.222Z,64.83
2018-02-06T10:06:59.586Z,65.09
2018-02-06T10:13:04.072Z,63.35
2018-02-06T10:19:08.587Z,62.70
2018-02-06T10:25:14.700Z,61.56
2018-02-06T10:31:19.736Z,59.52
2018-02-06T10:37:24.350Z,59.30
2018-02-06T10:43:29.069Z,61.25
2018-02-06T10:49:33.827Z,60.04
2018-02-06T10:55:38.372Z,61.30
2018-02-06T11:01:42.921Z,62.20
2018-02-06T11:07:47.409Z,63.00
2018-02-06T11:13:52.702Z,64.16
2018-02-06T11:19:57.322Z,63.50
2018-02-06T11:26:01.930Z,63.79
2018-02-06T11:32:06.426Z,62.34
2018-02-06T11:38:11.664Z,63.77
2018-02-06T11:44:16.149Z,63.63
2018-02-06T11:50:21.396Z,63.22
2018-02-06T11:56:26.029Z,63.26
2018-02-06T12:02:30.561Z,65.03
2018-02-06T12:08:35.812Z,65.10
2018-02-06T12:14:40.314Z,64.96
2018-02-06T12:20:45.912Z,64.73
2018-02-06T12:26:50.696Z,64.73
2018-02-06T12:32:55.957Z,63.66
2018-02-06T12:39:00.457Z,64.46
2018-02-06T12:45:04.949Z,64.04
2018-02-06T12:51:09.531Z,65.36
2018-02-06T12:57:14.122Z,63.76
2018-02-06T13:03:18.805Z,62.45
2018-02-06T13:09:23.857Z,62.74
2018-02-06T13:15:28.319Z,62.82
2018-02-06T13:21:32.821Z,62.04
2018-02-06T13:27:38.068Z,61.63
2018-02-06T13:33:42.542Z,62.27
2018-02-06T13:39:47.135Z,61.94
2018-02-06T13:45:52.071Z,64.36
2018-02-06T13:51:56.758Z,63.48
2018-02-06T13:58:01.258Z,64.22
2018-02-06T14:04:06.735Z,64.30
2018-02-06T14:10:11.255Z,65.16
2018-02-06T14:16:15.885Z,65.16
2018-02-06T14:22:20.681Z,64.58
2018-02-06T14:28:25.433Z,63.03
2018-02-06T14:34:30.063Z,63.06
2018-02-06T14:40:34.642Z,62.09
2018-02-06T14:46:39.876Z,62.70
2018-02-06T14:52:44.356Z,63.33
2018-02-06T14:58:48.851Z,62.38
2018-02-06T15:04:53.392Z,62.29
2018-02-06T15:10:58.109Z,63.73
2018-02-06T15:17:02.611Z,63.24
2018-02-06T15:23:07.224Z,63.80
2018-02-06T15:29:11.721Z,63.40
2018-02-06T15:35:16.307Z,64.28
2018-02-06T15:41:20.961Z,64.48
2018-02-06T15:47:25.581Z,65.60
2018-02-06T15:53:30.172Z,63.93
2018-02-06T15:59:35.484Z,65.42
2018-02-06T16:05:40.029Z,65.78
2018-02-06T16:11:44.523Z,65.53
2018-02-06T16:17:49.218Z,65.96
2018-02-06T16:23:53.868Z,64.84
2018-02-06T16:29:58.529Z,65.92
2018-02-06T16:36:03.061Z,64.94
2018-02-06T16:42:07.569Z,66.36
2018-02-06T16:48:12.198Z,67.18
2018-02-06T16:54:16.828Z,67.85
2018-02-06T17:00:23.025Z,68.47
2018-02-06T17:06:27.513Z,69.19
2018-02-06T17:12:32.827Z,69.53
2018-02-06T17:18:37.424Z,69.50
2018-02-06T17:24:41.914Z,70.12
2018-02-06T17:30:46.425Z,69.37
2018-02-06T17:36:51.015Z,70.21
2018-02-06T17:42:56.477Z,69.61
2018-02-06T17:49:01.128Z,69.95
2018-02-06T17:55:05.635Z,70.41
2018-02-06T18:01:10.118Z,70.29
2018-02-06T18:07:14.687Z,70.19
2018-02-06T18:13:20.115Z,71.18
2018-02-06T18:19:24.982Z,71.00
2018-02-06T18:25:29.567Z,72.36
2018-02-06T18:31:34.139Z,73.79
2018-02-06T18:37:38.907Z,74.40
2018-02-06T18:43:44.223Z,73.91
2018-02-06T18:49:48.703Z,75.23
2018-02-06T18:55:53.177Z,72.95
2018-02-06T19:01:57.672Z,71.09
2018-02-06T19:08:02.257Z,72.89
2018-02-06T19:14:06.755Z,73.20
2018-02-06T19:20:12.100Z,73.02
2018-02-06T19:26:17.048Z,73.38
2018-02-06T19:32:22.495Z,73.20
2018-02-06T19:38:27.828Z,73.86
2018-02-06T19:44:33.101Z,74.44
2018-02-06T19:50:37.640Z,74.42
2018-02-06T19:56:42.210Z,75.55
2018-02-06T20:02:47.583Z,75.77
2018-02-06T20:08:54.559Z,75.55
2018-02-06T20:14:59.172Z,76.59
2018-02-06T20:21:03.656Z,76.47
2018-02-06T20:27:08.199Z,76.26
2018-02-06T20:33:12.766Z,77.13
2018-02-06T20:39:17.867Z,76.80
2018-02-06T20:45:22.398Z,76.58
2018-02-06T20:51:26.996Z,75.49
2018-02-06T20:57:31.635Z,76.31
2018-02-06T21:03:36.143Z,76.70
2018-02-06T21:09:41.535Z,75.24
2018-02-06T21:15:46.053Z,75.78
2018-02-06T21:21:50.764Z,75.46
2018-02-06T21:27:55.516Z,74.51
2018-02-06T21:34:00.270Z,76.53
2018-02-06T21:40:04.826Z,77.27
2018-02-06T21:46:09.456Z,76.37
2018-02-06T21:52:14.069Z,76.67
2018-02-06T21:58:18.592Z,76.58
2018-02-06T22:04:23.542Z,77.53
2018-02-06T22:10:29.586Z,76.95
2018-02-06T22:16:34.389Z,77.36
2018-02-06T22:22:39.658Z,77.51
2018-02-06T22:28:44.323Z,79.14
2018-02-06T22:34:49.863Z,80.31
2018-02-06T22:40:54.486Z,80.11
2018-02-06T22:46:59.015Z,80.56
2018-02-06T22:53:04.261Z,80.94
2018-02-06T22:59:08.858Z,80.58
2018-02-06T23:05:13.357Z,79.61
2018-02-06T23:11:17.980Z,79.97
2018-02-06T23:17:23.260Z,79.51
2018-02-06T23:23:28.201Z,79.66
2018-02-06T23:29:32.791Z,79.57
2018-02-06T23:35:37.304Z,80.75
2018-02-06T23:41:42.652Z,79.06
2018-02-06T23:47:47.275Z,79.56
2018-02-06T23:53:51.908Z,79.53
2018-02-06T23:59:56.427Z,79.16
